Time;durP1;ratioP1;P1;durP2;ratioP2;P2;SDS_P1;SDS_P2;PMS_P1;PMS_P2;Temp;Humidity;BMP_temperature;BMP_pressure;BME280_temperature;BME280_humidity;BME280_pressure;Samples;Min_cycle;Max_cycle;Signal;HPM_P1;HPM_P2
2022/09/23 00:00:13;;;;;;;3.30;1.97;;;11.40;99.90;;;;;;5069289;28;20456;-79
2022/09/23 00:02:41;;;;;;;4.17;1.73;;;11.30;99.90;;;;;;5059066;28;20524;-80
2022/09/23 00:05:10;;;;;;;2.37;1.47;;;11.30;99.90;;;;;;5049352;28;20481;-80
2022/09/23 00:07:37;;;;;;;3.03;1.60;;;11.40;99.90;;;;;;5050357;28;20446;-80
2022/09/23 00:10:07;;;;;;;5.87;1.80;;;11.40;99.90;;;;;;5049452;28;20851;-81
2022/09/23 00:12:33;;;;;;;2.80;1.80;;;11.40;99.90;;;;;;5047820;28;20512;-81
2022/09/23 00:15:00;;;;;;;2.70;1.77;;;11.40;99.90;;;;;;5048224;28;20551;-80
2022/09/23 00:17:28;;;;;;;2.80;1.83;;;11.30;99.90;;;;;;5066614;28;20458;-79
2022/09/23 00:19:55;;;;;;;3.40;1.73;;;11.30;99.90;;;;;;5069553;28;20481;-80
2022/09/23 00:22:22;;;;;;;3.03;1.70;;;11.40;99.90;;;;;;5053983;28;20457;-80
2022/09/23 00:24:48;;;;;;;2.33;1.40;;;11.30;99.90;;;;;;5055357;28;20481;-80
2022/09/23 00:27:19;;;;;;;3.60;1.90;;;11.40;99.90;;;;;;5051677;28;20492;-82
2022/09/23 00:29:46;;;;;;;3.53;1.77;;;11.30;99.90;;;;;;5055215;28;20470;-81
2022/09/23 00:32:13;;;;;;;6.20;1.90;;;11.30;99.90;;;;;;5069357;28;20515;-81
2022/09/23 00:34:40;;;;;;;2.80;1.63;;;11.30;99.90;;;;;;5063535;28;20839;-79
2022/09/23 00:37:07;;;;;;;3.13;1.87;;;11.30;99.90;;;;;;5049908;28;20522;-81
2022/09/23 00:39:34;;;;;;;2.97;1.60;;;11.30;99.90;;;;;;5051831;28;20895;-80
2022/09/23 00:42:00;;;;;;;2.43;1.47;;;11.30;99.90;;;;;;5069402;28;20507;-81
2022/09/23 00:44:48;;;;;;;3.97;1.67;;;11.30;99.90;;;;;;5053988;28;20524;-81
2022/09/23 00:47:21;;;;;;;2.27;1.33;;;11.30;99.90;;;;;;5066416;28;20458;-80
2022/09/23 00:49:53;;;;;;;4.17;1.93;;;11.30;99.90;;;;;;5065596;28;20451;-80
2022/09/23 00:52:23;;;;;;;2.80;1.50;;;11.30;99.90;;;;;;5068684;28;20479;-80
2022/09/23 00:54:54;;;;;;;3.90;2.07;;;11.30;99.90;;;;;;5052235;28;20521;-79
2022/09/23 00:57:22;;;;;;;3.70;1.47;;;11.30;99.90;;;;;;5067107;28;20518;-81
2022/09/23 00:59:51;;;;;;;3.20;1.80;;;11.30;99.90;;;;;;5054003;28;20451;-79
2022/09/23 01:02:20;;;;;;;2.00;1.43;;;11.30;99.90;;;;;;5049632;28;20531;-81
2022/09/23 01:04:49;;;;;;;2.20;1.30;;;11.30;99.90;;;;;;5058191;28;20472;-77
2022/09/23 01:07:16;;;;;;;2.50;1.63;;;11.30;99.90;;;;;;5060506;28;20484;-79
2022/09/23 01:09:43;;;;;;;3.50;1.30;;;11.30;99.90;;;;;;5048570;28;20456;-78
2022/09/23 01:12:22;;;;;;;2.40;1.30;;;11.30;99.90;;;;;;5057525;28;20461;-78
2022/09/23 01:14:56;;;;;;;3.60;1.47;;;11.30;99.90;;;;;;5058748;28;20496;-78
2022/09/23 01:17:30;;;;;;;5.43;1.50;;;11.30;99.90;;;;;;5060254;28;20820;-79
2022/09/23 01:20:16;;;;;;;2.30;1.57;;;11.30;99.90;;;;;;5032416;28;20444;-77
2022/09/23 01:22:49;;;;;;;4.43;1.83;;;11.30;99.90;;;;;;5020921;28;20441;-79
2022/09/23 01:25:46;;;;;;;2.73;1.80;;;11.20;99.90;;;;;;5018481;28;20480;-77
2022/09/23 01:28:33;;;;;;;3.77;2.17;;;11.20;99.90;;;;;;5040415;28;20468;-78
2022/09/23 01:31:07;;;;;;;2.77;1.50;;;11.20;99.90;;;;;;5052255;28;20447;-77
2022/09/23 01:33:43;;;;;;;3.10;1.47;;;11.20;99.90;;;;;;5051002;28;20493;-78
2022/09/23 01:36:18;;;;;;;2.43;1.17;;;11.20;99.90;;;;;;5047185;28;20483;-79
2022/09/23 01:38:57;;;;;;;2.57;1.30;;;11.20;99.90;;;;;;5054211;28;20463;-79
2022/09/23 01:41:39;;;;;;;2.30;1.40;;;11.10;99.90;;;;;;5059374;28;20439;-77
2022/09/23 01:44:09;;;;;;;2.03;1.27;;;11.10;99.90;;;;;;5044018;28;20937;-78
2022/09/23 01:46:42;;;;;;;2.37;1.37;;;11.10;99.90;;;;;;5041787;28;20474;-77
2022/09/23 01:49:15;;;;;;;1.90;1.20;;;11.10;99.90;;;;;;5055914;28;20444;-78
2022/09/23 01:51:45;;;;;;;2.50;1.50;;;11.10;99.90;;;;;;5057535;28;20452;-79
2022/09/23 01:54:18;;;;;;;3.60;1.50;;;11.10;99.90;;;;;;5020385;28;20473;-77
2022/09/23 01:56:51;;;;;;;6.00;1.40;;;11.10;99.90;;;;;;5040030;28;21029;-78
2022/09/23 01:59:22;;;;;;;4.00;1.70;;;11.10;99.90;;;;;;5042804;28;20521;-77
2022/09/23 02:01:55;;;;;;;4.07;1.80;;;11.10;99.90;;;;;;5050094;28;20450;-78
2022/09/23 02:04:29;;;;;;;5.30;1.60;;;11.00;99.90;;;;;;5060391;28;20479;-77
2022/09/23 02:06:59;;;;;;;7.27;2.10;;;11.10;99.90;;;;;;5057136;28;20452;-78
2022/09/23 02:09:31;;;;;;;4.60;2.90;;;11.00;99.90;;;;;;5064990;28;20459;-78
2022/09/23 02:12:06;;;;;;;2.40;1.23;;;11.00;99.90;;;;;;5052836;28;20456;-79
2022/09/23 02:14:38;;;;;;;2.13;1.20;;;11.00;99.90;;;;;;5040734;28;20487;-79
2022/09/23 02:17:11;;;;;;;6.70;2.03;;;11.00;99.90;;;;;;5050955;28;20462;-79
2022/09/23 02:19:45;;;;;;;2.43;1.30;;;11.00;99.90;;;;;;5042497;28;20536;-78
2022/09/23 02:22:16;;;;;;;3.83;1.57;;;11.00;99.90;;;;;;5062223;28;20494;-79
2022/09/23 02:24:43;;;;;;;2.60;1.40;;;11.00;99.90;;;;;;5060509;28;20581;-79
2022/09/23 02:27:19;;;;;;;2.23;1.30;;;11.00;99.90;;;;;;5064054;28;20463;-77
2022/09/23 02:29:52;;;;;;;2.47;1.33;;;11.00;99.90;;;;;;5062527;28;20424;-78
2022/09/23 02:32:26;;;;;;;2.67;1.43;;;11.00;99.90;;;;;;5040795;28;20500;-79
2022/09/23 02:34:59;;;;;;;3.40;2.00;;;11.00;99.90;;;;;;5042281;28;20572;-78
2022/09/23 02:37:36;;;;;;;2.57;1.27;;;11.00;99.90;;;;;;5043745;28;20444;-78
2022/09/23 02:40:12;;;;;;;2.80;1.50;;;10.90;99.90;;;;;;5046207;28;20463;-77
2022/09/23 02:42:49;;;;;;;2.43;1.60;;;10.90;99.90;;;;;;5063353;28;20443;-77
2022/09/23 02:45:16;;;;;;;2.67;1.23;;;10.90;99.90;;;;;;5034934;28;20466;-77
2022/09/23 02:47:51;;;;;;;2.40;1.40;;;10.90;99.90;;;;;;5061289;28;20457;-77
2022/09/23 02:50:19;;;;;;;2.00;1.37;;;10.90;99.90;;;;;;5023787;28;20456;-79
2022/09/23 02:52:46;;;;;;;2.67;1.73;;;10.90;99.90;;;;;;5020985;28;20461;-79
2022/09/23 02:55:17;;;;;;;2.73;1.40;;;10.90;99.90;;;;;;5041505;28;21027;-78
2022/09/23 02:57:45;;;;;;;2.90;1.50;;;10.90;99.90;;;;;;5044131;28;20503;-79
2022/09/23 03:00:13;;;;;;;2.80;1.20;;;10.90;99.90;;;;;;5041927;28;20464;-79
2022/09/23 03:02:59;;;;;;;2.57;1.33;;;10.80;99.90;;;;;;5052110;28;20563;-79
2022/09/23 03:05:30;;;;;;;2.57;1.20;;;10.80;99.90;;;;;;5057392;28;20535;-78
2022/09/23 03:08:12;;;;;;;2.67;1.67;;;10.90;99.90;;;;;;5052783;28;20491;-79
2022/09/23 03:10:48;;;;;;;2.93;1.57;;;10.80;99.90;;;;;;5040234;28;20479;-80
2022/09/23 03:13:21;;;;;;;2.20;1.43;;;10.80;99.90;;;;;;5056665;28;20493;-78
2022/09/23 03:15:55;;;;;;;4.53;1.50;;;10.80;99.90;;;;;;5054859;28;20473;-78
2022/09/23 03:18:31;;;;;;;2.23;1.30;;;10.80;99.90;;;;;;5055123;28;20505;-78
2022/09/23 03:21:02;;;;;;;3.00;1.40;;;10.80;99.90;;;;;;5062970;28;20428;-79
2022/09/23 03:23:34;;;;;;;2.90;1.40;;;10.90;99.90;;;;;;5049741;28;20457;-77
2022/09/23 03:26:05;;;;;;;2.30;1.67;;;10.90;99.90;;;;;;5055684;28;20558;-78
2022/09/23 03:28:35;;;;;;;2.50;1.40;;;10.90;99.90;;;;;;5051151;28;20453;-80
2022/09/23 03:31:02;;;;;;;4.57;1.87;;;10.90;99.90;;;;;;5047272;28;20455;-79
2022/09/23 03:33:31;;;;;;;2.70;1.60;;;10.90;99.90;;;;;;5061400;28;20484;-77
2022/09/23 03:38:51;;;;;;;3.50;1.70;;;10.90;99.90;;;;;;5060868;28;20459;-80
2022/09/23 03:41:27;;;;;;;2.83;2.03;;;10.90;99.90;;;;;;5059074;28;20457;-79
2022/09/23 03:43:56;;;;;;;2.83;1.60;;;10.90;99.90;;;;;;5042075;28;20443;-79
2022/09/23 03:46:26;;;;;;;4.13;1.47;;;10.80;99.90;;;;;;5049082;28;20482;-77
2022/09/23 03:48:58;;;;;;;2.33;1.53;;;10.80;99.90;;;;;;5044134;28;20456;-77
2022/09/23 03:51:25;;;;;;;2.53;1.50;;;10.80;99.90;;;;;;5049192;28;20454;-79
2022/09/23 03:53:52;;;;;;;4.10;1.33;;;10.80;99.90;;;;;;5060926;28;20560;-77
2022/09/23 03:56:18;;;;;;;4.20;1.67;;;10.80;99.90;;;;;;5037493;28;20570;-80
2022/09/23 03:58:45;;;;;;;2.47;1.50;;;10.80;99.90;;;;;;5042605;28;20465;-77
2022/09/23 04:01:13;;;;;;;2.07;1.30;;;10.80;99.90;;;;;;5057120;28;20459;-79
2022/09/23 04:03:41;;;;;;;3.73;1.63;;;10.80;99.90;;;;;;5061545;28;20444;-77
2022/09/23 04:06:09;;;;;;;2.07;1.37;;;10.80;99.90;;;;;;5061777;28;20502;-78
2022/09/23 04:08:36;;;;;;;3.10;1.80;;;10.70;99.90;;;;;;5063346;28;20467;-78
2022/09/23 04:11:03;;;;;;;3.00;2.00;;;10.70;99.90;;;;;;5051117;28;21032;-79
2022/09/23 04:13:30;;;;;;;3.33;1.70;;;10.60;99.90;;;;;;5042690;28;20480;-79
2022/09/23 04:15:57;;;;;;;3.80;1.80;;;10.60;99.90;;;;;;5053698;28;20491;-78
2022/09/23 04:18:24;;;;;;;4.93;2.40;;;10.60;99.90;;;;;;5056361;28;20456;-78
2022/09/23 04:20:51;;;;;;;2.53;1.83;;;10.60;99.90;;;;;;5044442;28;20465;-78
2022/09/23 04:23:19;;;;;;;3.03;1.63;;;10.60;99.90;;;;;;5041161;28;20466;-78
2022/09/23 04:25:46;;;;;;;3.77;1.90;;;10.60;99.90;;;;;;5051706;28;20547;-78
2022/09/23 04:28:13;;;;;;;2.83;1.50;;;10.60;99.90;;;;;;5047282;28;20456;-79
2022/09/23 04:30:42;;;;;;;3.73;2.00;;;10.50;99.90;;;;;;5044666;28;20458;-80
2022/09/23 04:33:09;;;;;;;3.47;1.63;;;10.50;99.90;;;;;;5047291;28;20889;-78
2022/09/23 04:35:37;;;;;;;2.57;1.50;;;10.50;99.90;;;;;;5047877;28;20484;-79
2022/09/23 04:38:04;;;;;;;2.67;1.60;;;10.50;99.90;;;;;;5042922;28;20513;-79
2022/09/23 04:40:33;;;;;;;2.40;1.50;;;10.50;99.90;;;;;;5043444;28;20453;-78
2022/09/23 04:42:59;;;;;;;2.37;1.73;;;10.50;99.90;;;;;;5041404;28;20458;-79
2022/09/23 04:45:26;;;;;;;2.40;1.60;;;10.50;99.90;;;;;;5046254;28;20546;-81
2022/09/23 04:47:54;;;;;;;2.90;1.77;;;10.40;99.90;;;;;;5063019;28;20455;-79
2022/09/23 04:50:21;;;;;;;3.43;1.73;;;10.30;99.90;;;;;;5061096;28;20824;-79
2022/09/23 04:52:48;;;;;;;2.80;1.97;;;10.40;99.90;;;;;;5060672;28;20486;-78
2022/09/23 04:55:15;;;;;;;5.40;2.03;;;10.40;99.90;;;;;;5056898;28;20590;-80
2022/09/23 04:57:43;;;;;;;2.93;1.80;;;10.40;99.90;;;;;;5038561;28;20582;-79
2022/09/23 05:00:14;;;;;;;2.97;1.90;;;10.40;99.90;;;;;;5040265;28;20511;-79
2022/09/23 05:02:43;;;;;;;2.60;1.60;;;10.40;99.90;;;;;;5040824;28;20513;-79
2022/09/23 05:05:10;;;;;;;4.17;2.30;;;10.30;99.90;;;;;;5039285;28;20554;-78
2022/09/23 05:07:36;;;;;;;5.07;1.97;;;10.40;99.90;;;;;;5046677;28;20470;-79
2022/09/23 05:10:04;;;;;;;2.47;1.63;;;10.30;99.90;;;;;;5058541;28;20539;-78
2022/09/23 05:12:31;;;;;;;4.53;1.77;;;10.30;99.90;;;;;;5050025;28;20448;-79
2022/09/23 05:14:59;;;;;;;5.43;1.97;;;10.30;99.90;;;;;;5046335;28;20482;-79
2022/09/23 05:17:30;;;;;;;5.93;2.03;;;10.30;99.90;;;;;;5052239;28;20441;-78
2022/09/23 05:19:57;;;;;;;3.00;1.87;;;10.30;99.90;;;;;;5041387;28;20452;-79
2022/09/23 05:22:25;;;;;;;3.33;2.23;;;10.30;99.90;;;;;;5043260;28;20472;-78
2022/09/23 05:24:51;;;;;;;2.87;1.87;;;10.30;99.90;;;;;;5051510;28;20475;-78
2022/09/23 05:27:18;;;;;;;3.00;2.00;;;10.30;99.90;;;;;;5069317;28;20507;-79
2022/09/23 05:29:45;;;;;;;4.67;2.10;;;10.30;99.90;;;;;;5074022;28;20448;-80
2022/09/23 05:32:14;;;;;;;3.83;2.07;;;10.20;99.90;;;;;;5074440;28;20508;-79
2022/09/23 05:34:41;;;;;;;3.63;2.50;;;10.20;99.90;;;;;;5070519;28;20487;-80
2022/09/23 05:37:07;;;;;;;3.57;2.20;;;10.20;99.90;;;;;;5074266;28;20434;-79
2022/09/23 05:39:34;;;;;;;4.33;1.90;;;10.20;99.90;;;;;;5063264;28;20536;-79
2022/09/23 05:42:01;;;;;;;4.50;2.00;;;10.20;99.90;;;;;;5081678;22;20521;-84
2022/09/23 05:44:28;;;;;;;5.60;1.90;;;10.20;99.90;;;;;;5062892;28;20446;-83
2022/09/23 05:46:55;;;;;;;3.67;1.90;;;10.30;99.90;;;;;;5053818;28;20454;-84
2022/09/23 05:49:23;;;;;;;3.27;2.20;;;10.20;99.90;;;;;;5065705;28;20507;-83
2022/09/23 05:51:50;;;;;;;3.23;1.90;;;10.20;99.90;;;;;;5050592;28;20483;-83
2022/09/23 05:54:17;;;;;;;4.00;2.43;;;10.10;99.90;;;;;;5047335;28;20562;-83
2022/09/23 05:56:44;;;;;;;5.17;2.13;;;10.00;99.90;;;;;;5044377;28;20492;-83
2022/09/23 05:59:11;;;;;;;4.57;2.80;;;10.10;99.90;;;;;;5046263;28;20481;-83
2022/09/23 06:01:38;;;;;;;4.57;2.37;;;10.10;99.90;;;;;;5040411;28;20546;-83
2022/09/23 06:04:06;;;;;;;2.70;2.13;;;10.20;99.90;;;;;;5044462;28;20451;-83
2022/09/23 06:06:37;;;;;;;6.97;3.23;;;10.10;99.90;;;;;;5043440;28;20458;-83
2022/09/23 06:09:05;;;;;;;12.17;4.23;;;10.20;99.90;;;;;;5045092;28;20477;-83
2022/09/23 06:11:33;;;;;;;7.50;4.97;;;10.30;99.90;;;;;;5044664;28;20469;-83
2022/09/23 06:14:01;;;;;;;14.53;4.43;;;10.30;99.90;;;;;;5045345;28;20494;-83
2022/09/23 06:16:28;;;;;;;14.50;4.77;;;10.40;99.90;;;;;;5048743;28;20523;-83
2022/09/23 06:18:55;;;;;;;10.37;3.60;;;10.40;99.90;;;;;;5050186;28;20456;-83
2022/09/23 06:21:22;;;;;;;11.60;4.00;;;10.50;99.90;;;;;;5048514;28;20503;-83
2022/09/23 06:23:50;;;;;;;7.93;3.80;;;10.50;99.90;;;;;;5048215;28;20457;-83
2022/09/23 06:26:17;;;;;;;16.63;4.13;;;10.60;99.90;;;;;;5045810;28;20510;-83
2022/09/23 06:28:45;;;;;;;12.73;4.57;;;10.70;99.90;;;;;;5045903;28;20942;-83
2022/09/23 06:31:14;;;;;;;16.17;4.57;;;10.70;99.90;;;;;;5042004;28;20476;-83
2022/09/23 06:33:45;;;;;;;14.37;5.37;;;10.70;99.90;;;;;;5038181;28;20460;-84
2022/09/23 06:36:13;;;;;;;12.73;5.03;;;10.80;99.90;;;;;;5042309;28;20508;-84
2022/09/23 06:38:43;;;;;;;10.43;3.70;;;10.80;99.90;;;;;;5043094;28;20560;-85
2022/09/23 06:41:11;;;;;;;25.57;4.50;;;10.90;99.90;;;;;;5044047;28;20574;-84
2022/09/23 06:43:38;;;;;;;18.00;3.70;;;11.00;99.90;;;;;;5044839;28;20520;-83
2022/09/23 06:46:07;;;;;;;15.43;4.10;;;11.10;99.90;;;;;;5045047;28;20508;-83
2022/09/23 06:48:35;;;;;;;21.30;4.63;;;11.20;99.90;;;;;;5045253;28;20460;-83
2022/09/23 06:51:06;;;;;;;18.73;5.53;;;11.30;99.90;;;;;;5042371;28;20467;-83
2022/09/23 06:53:33;;;;;;;17.90;5.60;;;11.40;99.90;;;;;;5043066;28;20448;-84
2022/09/23 06:56:01;;;;;;;18.83;5.73;;;11.50;99.90;;;;;;5043186;28;20475;-84
2022/09/23 06:58:30;;;;;;;19.23;5.70;;;11.60;99.90;;;;;;5044400;28;20535;-85
2022/09/23 07:01:01;;;;;;;19.80;6.30;;;11.70;99.90;;;;;;5042761;28;20453;-85
2022/09/23 07:03:28;;;;;;;28.23;6.57;;;11.90;99.90;;;;;;5045514;28;20989;-83
2022/09/23 07:05:55;;;;;;;27.03;7.30;;;12.00;99.90;;;;;;5046594;28;20454;-83
2022/09/23 07:08:25;;;;;;;21.00;6.57;;;12.10;99.90;;;;;;5045116;28;20452;-82
2022/09/23 07:10:53;;;;;;;29.20;6.00;;;12.30;99.90;;;;;;5045006;28;20453;-83
2022/09/23 07:13:19;;;;;;;22.97;5.00;;;12.40;99.90;;;;;;5044611;28;20523;-83
2022/09/23 07:15:50;;;;;;;10.90;4.63;;;12.50;99.90;;;;;;5042210;28;20554;-83
2022/09/23 07:18:17;;;;;;;6.73;3.13;;;12.60;99.90;;;;;;5024190;28;20447;-83
2022/09/23 07:20:45;;;;;;;7.17;2.93;;;12.80;99.90;;;;;;5035088;28;20501;-83
2022/09/23 07:23:12;;;;;;;3.90;1.60;;;12.90;99.90;;;;;;5034627;28;21293;-84
2022/09/23 07:25:45;;;;;;;5.13;2.70;;;12.90;99.90;;;;;;5033192;28;20449;-83
2022/09/23 07:28:15;;;;;;;4.23;1.60;;;13.10;99.90;;;;;;5036540;28;20455;-85
2022/09/23 07:30:43;;;;;;;3.00;1.43;;;13.20;99.90;;;;;;5033551;28;20539;-84
2022/09/23 07:33:15;;;;;;;3.20;2.17;;;13.30;99.90;;;;;;5036665;28;20511;-85
2022/09/23 07:35:42;;;;;;;2.90;1.70;;;13.50;99.90;;;;;;5039295;28;20857;-83
2022/09/23 07:38:10;;;;;;;3.10;1.70;;;13.60;99.90;;;;;;5040748;28;20550;-84
2022/09/23 07:40:42;;;;;;;5.20;1.97;;;13.60;99.90;;;;;;5041418;28;20453;-83
2022/09/23 07:43:09;;;;;;;2.70;1.60;;;13.80;99.90;;;;;;5041891;28;20463;-84
2022/09/23 07:45:42;;;;;;;3.60;1.67;;;13.90;99.90;;;;;;5044752;28;20605;-84
2022/09/23 07:48:13;;;;;;;3.50;1.63;;;14.00;99.90;;;;;;5043078;28;20482;-84
2022/09/23 07:53:12;;;;;;;4.00;1.50;;;14.20;99.90;;;;;;5146371;22;20523;-83
2022/09/23 07:55:39;;;;;;;3.10;1.70;;;14.30;99.90;;;;;;5098236;28;20515;-83
2022/09/23 07:58:05;;;;;;;3.77;1.90;;;14.40;99.90;;;;;;5098840;28;20524;-83
2022/09/23 08:00:33;;;;;;;2.30;1.50;;;14.50;99.90;;;;;;5103071;28;20444;-82
2022/09/23 08:03:00;;;;;;;2.60;1.43;;;14.60;99.90;;;;;;5090271;28;20479;-84
2022/09/23 08:05:28;;;;;;;3.63;1.20;;;14.70;99.90;;;;;;5090440;28;20452;-83
2022/09/23 08:07:55;;;;;;;3.87;1.80;;;14.70;99.90;;;;;;5091632;28;20522;-83
2022/09/23 08:10:21;;;;;;;4.33;1.30;;;14.80;99.90;;;;;;5092886;28;20530;-82
2022/09/23 08:12:48;;;;;;;2.63;1.47;;;14.90;99.90;;;;;;5089869;28;20575;-83
2022/09/23 08:15:16;;;;;;;6.53;2.10;;;15.00;99.90;;;;;;5096475;28;20554;-86
2022/09/23 08:17:43;;;;;;;3.07;1.30;;;15.10;99.90;;;;;;5061007;28;20483;-86
2022/09/23 08:20:42;;;;;;;3.17;1.93;;;15.20;99.90;;;;;;5068504;28;20452;-83
2022/09/23 08:22:59;;;;;;;2.83;1.43;;;15.20;99.90;;;;;;5088377;28;20457;-83
2022/09/23 08:25:26;;;;;;;3.73;1.57;;;15.20;99.90;;;;;;5090978;28;20544;-83
2022/09/23 08:27:53;;;;;;;3.20;1.63;;;15.30;99.90;;;;;;5087899;28;20531;-83
2022/09/23 08:30:20;;;;;;;3.17;1.80;;;15.40;99.90;;;;;;5066541;28;20483;-84
2022/09/23 08:32:50;;;;;;;3.47;2.20;;;15.50;99.90;;;;;;5083770;28;20464;-83
2022/09/23 08:35:17;;;;;;;3.33;1.70;;;15.50;99.90;;;;;;5066293;28;20486;-83
2022/09/23 08:37:44;;;;;;;2.73;1.37;;;15.60;99.90;;;;;;5080093;28;20457;-83
2022/09/23 08:40:12;;;;;;;3.30;1.60;;;15.70;99.90;;;;;;5069383;28;20446;-84
2022/09/23 08:42:43;;;;;;;5.17;1.43;;;15.60;99.90;;;;;;5065164;28;20470;-83
2022/09/23 08:45:15;;;;;;;3.00;1.50;;;15.70;99.90;;;;;;5073053;28;20485;-82
2022/09/23 08:47:47;;;;;;;3.03;1.30;;;15.80;99.90;;;;;;5079062;28;20533;-83
2022/09/23 08:50:17;;;;;;;3.80;1.50;;;15.80;99.90;;;;;;5070497;28;20457;-83
2022/09/23 08:52:49;;;;;;;3.00;1.43;;;15.90;99.90;;;;;;5077232;28;20544;-83
2022/09/23 08:55:18;;;;;;;4.80;2.00;;;15.90;99.90;;;;;;5085132;28;20567;-84
2022/09/23 08:58:02;;;;;;;3.03;1.87;;;15.90;99.90;;;;;;5082396;28;20450;-83
2022/09/23 09:00:35;;;;;;;4.87;1.53;;;15.80;99.90;;;;;;5082038;28;20491;-83
2022/09/23 09:03:13;;;;;;;2.83;1.43;;;15.90;99.90;;;;;;5077002;28;20476;-84
2022/09/23 09:05:41;;;;;;;3.17;1.33;;;16.00;99.90;;;;;;5081249;28;20855;-85
2022/09/23 09:08:12;;;;;;;3.60;1.50;;;16.00;99.90;;;;;;5087458;28;20814;-83
2022/09/23 09:10:45;;;;;;;2.30;1.30;;;16.00;99.90;;;;;;5081660;28;20512;-83
2022/09/23 09:13:25;;;;;;;5.50;1.50;;;16.00;99.90;;;;;;5083819;28;20444;-82
2022/09/23 09:16:13;;;;;;;3.40;1.53;;;16.10;99.90;;;;;;5076467;28;20546;-84
2022/09/23 09:18:48;;;;;;;5.60;1.70;;;16.10;99.90;;;;;;5081242;28;20477;-83
2022/09/23 09:21:15;;;;;;;4.60;2.00;;;16.10;99.90;;;;;;5082210;28;20474;-83
2022/09/23 09:23:51;;;;;;;3.10;1.60;;;16.20;99.90;;;;;;5073968;28;20486;-84
2022/09/23 09:26:22;;;;;;;4.63;2.27;;;16.30;99.90;;;;;;5074869;28;20513;-83
2022/09/23 09:28:51;;;;;;;3.90;1.73;;;16.30;99.90;;;;;;5096585;28;20477;-84
2022/09/23 09:31:25;;;;;;;4.33;2.07;;;16.40;99.90;;;;;;5069912;28;20574;-84
2022/09/23 09:34:10;;;;;;;7.83;1.87;;;16.40;99.90;;;;;;5068987;28;20442;-84
2022/09/23 09:36:46;;;;;;;2.90;1.20;;;16.50;99.90;;;;;;5059562;28;20482;-84
2022/09/23 09:39:14;;;;;;;3.10;1.50;;;16.60;99.90;;;;;;5072446;28;20895;-85
2022/09/23 09:41:47;;;;;;;4.90;1.40;;;16.70;99.90;;;;;;5071083;28;20472;-84
2022/09/23 09:44:23;;;;;;;3.27;1.60;;;16.60;99.90;;;;;;5060014;28;20550;-84
2022/09/23 09:47:06;;;;;;;4.13;1.63;;;16.70;99.90;;;;;;5070877;28;20445;-83
2022/09/23 09:49:41;;;;;;;4.57;1.90;;;16.80;99.90;;;;;;5078926;28;20478;-84
2022/09/23 09:52:14;;;;;;;2.73;1.30;;;16.90;99.90;;;;;;5065612;28;20482;-84
2022/09/23 09:54:42;;;;;;;3.43;1.60;;;17.00;99.90;;;;;;5074470;28;20458;-84
2022/09/23 09:57:26;;;;;;;3.37;1.33;;;17.10;99.90;;;;;;5075236;28;20483;-84
2022/09/23 09:59:53;;;;;;;3.33;1.77;;;17.40;99.90;;;;;;5076500;28;20435;-84
2022/09/23 10:02:26;;;;;;;4.10;1.70;;;17.60;99.90;;;;;;5065595;28;20472;-83
2022/09/23 10:05:02;;;;;;;9.20;1.70;;;17.60;99.90;;;;;;5064247;28;20458;-83
2022/09/23 10:07:31;;;;;;;3.20;1.60;;;17.70;99.90;;;;;;5073597;28;20446;-84
2022/09/23 10:10:14;;;;;;;2.53;1.20;;;17.70;99.90;;;;;;5078137;28;20442;-84
2022/09/23 10:12:47;;;;;;;3.37;1.50;;;17.80;99.90;;;;;;5080616;28;20477;-84
2022/09/23 10:15:30;;;;;;;3.80;1.53;;;17.80;99.90;;;;;;5076310;28;20491;-85
2022/09/23 10:18:00;;;;;;;2.97;1.60;;;17.90;99.90;;;;;;5057984;28;20456;-84
2022/09/23 10:20:36;;;;;;;5.90;1.70;;;17.90;99.90;;;;;;5058293;28;20449;-83
2022/09/23 10:23:15;;;;;;;3.77;1.50;;;18.00;99.90;;;;;;5083644;28;20914;-83
2022/09/23 10:25:42;;;;;;;2.23;1.20;;;18.10;99.90;;;;;;5088791;28;20494;-86
2022/09/23 10:28:32;;;;;;;4.13;1.30;;;18.00;99.90;;;;;;5089662;28;20441;-84
2022/09/23 10:31:07;;;;;;;10.30;1.60;;;17.90;99.90;;;;;;5076896;28;20452;-86
2022/09/23 10:33:35;;;;;;;4.83;2.43;;;17.80;99.90;;;;;;5073486;28;20461;-85
2022/09/23 10:36:02;;;;;;;4.00;2.07;;;18.00;99.90;;;;;;5081495;28;20484;-84
2022/09/23 10:38:28;;;;;;;2.80;1.30;;;18.10;99.90;;;;;;5096353;28;20538;-84
2022/09/23 10:47:01;;;;;;;4.20;1.90;;;18.90;99.90;;;;;;5038466;28;20506;-85
2022/09/23 10:49:48;;;;;;;3.80;1.70;;;18.70;99.90;;;;;;5067935;28;20515;-85
2022/09/23 10:52:34;;;;;;;3.13;1.80;;;18.70;99.90;;;;;;5073449;28;20531;-83
2022/09/23 10:55:11;;;;;;;2.63;1.50;;;18.70;99.90;;;;;;5060506;28;20511;-84
2022/09/23 10:57:54;;;;;;;3.57;1.50;;;18.90;99.90;;;;;;5069489;28;20995;-84
2022/09/23 11:00:35;;;;;;;3.27;1.73;;;18.70;99.90;;;;;;5081268;28;20452;-84
2022/09/23 11:03:34;;;;;;;4.90;1.80;;;18.60;99.90;;;;;;5068900;28;20927;-84
2022/09/23 11:06:12;;;;;;;4.50;1.93;;;18.50;99.90;;;;;;5061961;28;20457;-84
2022/09/23 11:08:57;;;;;;;5.80;1.40;;;18.80;99.90;;;;;;5081226;28;20443;-83
2022/09/23 11:11:37;;;;;;;5.67;1.80;;;19.00;99.90;;;;;;5079395;28;20490;-84
2022/09/23 11:14:20;;;;;;;3.33;1.50;;;18.70;99.90;;;;;;5062640;28;20440;-84
2022/09/23 11:17:06;;;;;;;4.20;1.57;;;18.90;99.90;;;;;;5066571;28;20490;-85
2022/09/23 11:20:02;;;;;;;2.53;1.10;;;19.10;99.90;;;;;;5082488;28;20496;-84
2022/09/23 11:22:48;;;;;;;4.00;1.53;;;19.30;99.90;;;;;;5063504;28;20479;-83
2022/09/23 11:25:30;;;;;;;2.50;1.20;;;19.20;99.90;;;;;;5079036;28;20436;-84
2022/09/23 11:28:28;;;;;;;3.50;1.60;;;19.50;99.90;;;;;;5065331;28;20451;-84
2022/09/23 11:31:06;;;;;;;3.20;1.60;;;19.50;99.90;;;;;;5068695;28;21009;-84
2022/09/23 11:33:44;;;;;;;3.43;1.77;;;19.50;99.90;;;;;;5073905;28;20466;-84
2022/09/23 11:36:22;;;;;;;4.63;2.10;;;19.60;99.90;;;;;;5072999;28;20509;-84
2022/09/23 11:38:52;;;;;;;3.33;1.57;;;19.70;99.90;;;;;;5072096;28;20516;-84
2022/09/23 11:41:23;;;;;;;4.30;1.87;;;19.80;99.90;;;;;;5076653;28;20513;-85
2022/09/23 11:43:58;;;;;;;3.50;1.53;;;20.10;99.90;;;;;;5081838;28;20451;-84
2022/09/23 11:46:34;;;;;;;3.47;1.53;;;20.30;99.90;;;;;;5071952;28;20450;-84
2022/09/23 11:49:09;;;;;;;4.73;1.73;;;20.40;99.90;;;;;;5081610;28;20442;-84
2022/09/23 11:51:41;;;;;;;7.47;2.03;;;20.80;99.90;;;;;;5081593;28;20473;-84
2022/09/23 11:54:16;;;;;;;4.00;1.77;;;21.30;99.90;;;;;;5064848;28;20535;-83
2022/09/23 11:56:46;;;;;;;3.10;1.60;;;21.60;99.90;;;;;;5079516;28;20470;-83
2022/09/23 11:59:23;;;;;;;3.17;1.60;;;21.70;99.90;;;;;;5078755;28;20447;-84
2022/09/23 12:02:04;;;;;;;3.90;1.50;;;21.70;99.90;;;;;;5067110;28;20525;-83
2022/09/23 12:04:35;;;;;;;4.53;1.60;;;21.70;99.90;;;;;;5067117;28;20935;-83
2022/09/23 12:07:08;;;;;;;4.00;1.87;;;21.70;99.90;;;;;;5062247;28;20440;-83
2022/09/23 12:09:41;;;;;;;2.57;1.37;;;21.50;99.90;;;;;;5075015;28;20439;-83
2022/09/23 12:12:17;;;;;;;6.20;1.37;;;21.60;99.90;;;;;;5063208;28;20475;-83
2022/09/23 12:14:55;;;;;;;4.60;2.00;;;21.50;99.90;;;;;;5083627;28;20445;-84
2022/09/23 12:17:38;;;;;;;2.10;1.13;;;21.40;99.90;;;;;;5081589;28;20528;-83
2022/09/23 12:20:31;;;;;;;4.77;1.50;;;21.10;99.90;;;;;;5076488;28;20454;-84
2022/09/23 12:23:12;;;;;;;9.40;1.90;;;20.80;99.90;;;;;;5066891;28;20474;-83
2022/09/23 12:25:45;;;;;;;3.70;2.40;;;20.50;99.90;;;;;;5081586;28;20793;-83
2022/09/23 12:28:17;;;;;;;3.27;1.87;;;20.60;99.90;;;;;;5066793;28;20940;-83
2022/09/23 12:30:44;;;;;;;2.90;1.40;;;20.60;99.90;;;;;;5070955;28;20893;-84
2022/09/23 12:33:27;;;;;;;3.93;1.57;;;20.60;99.90;;;;;;5073783;28;20446;-84
2022/09/23 12:36:01;;;;;;;4.90;1.40;;;20.40;99.90;;;;;;5075710;28;20567;-84
2022/09/23 12:38:36;;;;;;;3.10;1.40;;;20.60;99.90;;;;;;5065273;28;20454;-84
2022/09/23 12:41:19;;;;;;;2.60;1.67;;;20.50;99.90;;;;;;5067135;28;20470;-83
2022/09/23 12:43:52;;;;;;;5.30;1.60;;;20.40;99.90;;;;;;5069529;28;20454;-83
2022/09/23 12:46:24;;;;;;;3.13;1.50;;;20.40;99.90;;;;;;5078026;28;20707;-82
2022/09/23 12:49:05;;;;;;;3.37;1.73;;;20.50;99.90;;;;;;5076116;28;20439;-82
2022/09/23 12:51:34;;;;;;;7.63;5.00;;;20.40;99.90;;;;;;5080562;28;20520;-83
2022/09/23 12:54:23;;;;;;;8.27;2.77;;;20.50;99.90;;;;;;5068762;28;20451;-82
2022/09/23 12:57:06;;;;;;;3.17;1.70;;;20.20;99.90;;;;;;5070707;28;20561;-82
2022/09/23 12:59:56;;;;;;;6.00;2.30;;;20.00;99.90;;;;;;5074107;28;20454;-83
2022/09/23 13:02:33;;;;;;;6.50;2.57;;;19.80;99.90;;;;;;5065865;28;20470;-82
2022/09/23 13:08:08;;;;;;;4.37;2.17;;;19.50;99.90;;;;;;5070508;28;20417;-84
2022/09/23 13:10:41;;;;;;;4.07;2.10;;;19.50;99.90;;;;;;5076782;28;20462;-83
2022/09/23 13:13:19;;;;;;;4.20;2.40;;;19.20;99.90;;;;;;5070443;28;20461;-83
2022/09/23 13:15:46;;;;;;;6.60;2.13;;;19.30;99.90;;;;;;5076890;28;20435;-83
2022/09/23 13:18:54;;;;;;;3.40;2.13;;;19.30;99.90;;;;;;5080342;28;20459;-83
2022/09/23 13:21:54;;;;;;;4.00;2.30;;;19.20;99.90;;;;;;5058297;28;20459;-83
2022/09/23 13:24:41;;;;;;;6.27;2.40;;;19.00;99.90;;;;;;5061618;28;20460;-82